sensor_id;sensor_type;location;lat;lon;timestamp;P1;durP1;ratioP1;P2;durP2;ratioP2
15944;SDS011;30172;48.832;8.732;2022-10-31T00:00:53;5.63;;;2.25;;
15944;SDS011;30172;48.832;8.732;2022-10-31T00:03:18;5.17;;;2.70;;
15944;SDS011;30172;48.832;8.732;2022-10-31T00:05:45;5.80;;;3.00;;
15944;SDS011;30172;48.832;8.732;2022-10-31T00:08:11;8.40;;;2.40;;
15944;SDS011;30172;48.832;8.732;2022-10-31T00:10:37;5.77;;;3.13;;
15944;SDS011;30172;48.832;8.732;2022-10-31T00:13:06;6.80;;;2.65;;
15944;SDS011;30172;48.832;8.732;2022-10-31T00:15:32;7.27;;;2.83;;
15944;SDS011;30172;48.832;8.732;2022-10-31T00:17:58;6.87;;;2.73;;
15944;SDS011;30172;48.832;8.732;2022-10-31T00:20:24;8.03;;;2.80;;
15944;SDS011;30172;48.832;8.732;2022-10-31T00:22:49;9.77;;;2.65;;
15944;SDS011;30172;48.832;8.732;2022-10-31T00:25:14;3.97;;;2.33;;
15944;SDS011;30172;48.832;8.732;2022-10-31T00:27:40;7.43;;;2.83;;
15944;SDS011;30172;48.832;8.732;2022-10-31T00:30:05;7.43;;;2.78;;
15944;SDS011;30172;48.832;8.732;2022-10-31T00:32:31;3.80;;;2.63;;
15944;SDS011;30172;48.832;8.732;2022-10-31T00:34:56;5.60;;;2.47;;
15944;SDS011;30172;48.832;8.732;2022-10-31T00:37:21;7.07;;;2.53;;
15944;SDS011;30172;48.832;8.732;2022-10-31T00:39:47;6.18;;;2.75;;
15944;SDS011;30172;48.832;8.732;2022-10-31T00:42:13;6.88;;;2.80;;
15944;SDS011;30172;48.832;8.732;2022-10-31T00:44:39;8.00;;;2.85;;
15944;SDS011;30172;48.832;8.732;2022-10-31T00:47:04;6.20;;;2.40;;
15944;SDS011;30172;48.832;8.732;2022-10-31T00:49:29;9.80;;;3.00;;
15944;SDS011;30172;48.832;8.732;2022-10-31T00:51:55;4.80;;;2.20;;
15944;SDS011;30172;48.832;8.732;2022-10-31T00:54:20;4.72;;;2.60;;
15944;SDS011;30172;48.832;8.732;2022-10-31T00:56:45;4.77;;;2.37;;
15944;SDS011;30172;48.832;8.732;2022-10-31T00:59:10;7.23;;;2.53;;
15944;SDS011;30172;48.832;8.732;2022-10-31T01:01:36;6.50;;;2.70;;
15944;SDS011;30172;48.832;8.732;2022-10-31T01:04:01;4.33;;;2.40;;
15944;SDS011;30172;48.832;8.732;2022-10-31T01:06:26;6.22;;;2.60;;
15944;SDS011;30172;48.832;8.732;2022-10-31T01:08:52;4.50;;;2.90;;
15944;SDS011;30172;48.832;8.732;2022-10-31T01:11:19;8.80;;;2.87;;
15944;SDS011;30172;48.832;8.732;2022-10-31T01:13:45;4.87;;;2.50;;
15944;SDS011;30172;48.832;8.732;2022-10-31T01:16:12;4.47;;;2.73;;
15944;SDS011;30172;48.832;8.732;2022-10-31T01:18:40;5.47;;;2.70;;
15944;SDS011;30172;48.832;8.732;2022-10-31T01:21:07;4.80;;;2.70;;
15944;SDS011;30172;48.832;8.732;2022-10-31T01:23:34;6.30;;;2.67;;
15944;SDS011;30172;48.832;8.732;2022-10-31T01:26:21;9.47;;;2.60;;
15944;SDS011;30172;48.832;8.732;2022-10-31T01:28:51;8.90;;;3.00;;
15944;SDS011;30172;48.832;8.732;2022-10-31T01:31:18;5.10;;;3.00;;
15944;SDS011;30172;48.832;8.732;2022-10-31T01:33:45;5.10;;;2.90;;
15944;SDS011;30172;48.832;8.732;2022-10-31T01:36:17;7.00;;;3.13;;
15944;SDS011;30172;48.832;8.732;2022-10-31T01:38:46;7.17;;;2.90;;
15944;SDS011;30172;48.832;8.732;2022-10-31T01:41:12;5.13;;;2.50;;
15944;SDS011;30172;48.832;8.732;2022-10-31T01:43:42;9.60;;;3.30;;
15944;SDS011;30172;48.832;8.732;2022-10-31T01:46:12;7.00;;;3.17;;
15944;SDS011;30172;48.832;8.732;2022-10-31T01:48:39;7.27;;;2.90;;
15944;SDS011;30172;48.832;8.732;2022-10-31T01:51:07;3.70;;;2.70;;
15944;SDS011;30172;48.832;8.732;2022-10-31T01:53:33;11.30;;;3.27;;
15944;SDS011;30172;48.832;8.732;2022-10-31T01:55:59;6.33;;;2.87;;
15944;SDS011;30172;48.832;8.732;2022-10-31T01:58:25;6.63;;;3.10;;
15944;SDS011;30172;48.832;8.732;2022-10-31T02:00:54;7.57;;;3.30;;
15944;SDS011;30172;48.832;8.732;2022-10-31T02:03:22;5.87;;;2.87;;
15944;SDS011;30172;48.832;8.732;2022-10-31T02:05:47;7.93;;;3.20;;
15944;SDS011;30172;48.832;8.732;2022-10-31T02:10:48;7.87;;;3.17;;
15944;SDS011;30172;48.832;8.732;2022-10-31T02:13:14;5.67;;;3.30;;
15944;SDS011;30172;48.832;8.732;2022-10-31T02:15:40;4.70;;;2.63;;
15944;SDS011;30172;48.832;8.732;2022-10-31T02:18:06;5.40;;;2.80;;
15944;SDS011;30172;48.832;8.732;2022-10-31T02:20:33;7.70;;;2.70;;
15944;SDS011;30172;48.832;8.732;2022-10-31T02:31:42;5.30;;;2.73;;
15944;SDS011;30172;48.832;8.732;2022-10-31T02:34:21;5.83;;;2.83;;
15944;SDS011;30172;48.832;8.732;2022-10-31T02:39:50;8.90;;;2.90;;
15944;SDS011;30172;48.832;8.732;2022-10-31T02:42:42;7.33;;;3.13;;
15944;SDS011;30172;48.832;8.732;2022-10-31T02:45:21;10.97;;;3.63;;
15944;SDS011;30172;48.832;8.732;2022-10-31T02:47:57;5.33;;;2.87;;
15944;SDS011;30172;48.832;8.732;2022-10-31T02:50:26;7.00;;;2.53;;
15944;SDS011;30172;48.832;8.732;2022-10-31T02:52:54;6.17;;;3.07;;
15944;SDS011;30172;48.832;8.732;2022-10-31T02:57:56;9.27;;;3.10;;
15944;SDS011;30172;48.832;8.732;2022-10-31T03:00:24;10.00;;;3.13;;
15944;SDS011;30172;48.832;8.732;2022-10-31T03:02:57;7.17;;;3.43;;
15944;SDS011;30172;48.832;8.732;2022-10-31T03:08:32;8.40;;;3.10;;
15944;SDS011;30172;48.832;8.732;2022-10-31T03:11:05;7.50;;;3.00;;
15944;SDS011;30172;48.832;8.732;2022-10-31T03:16:16;6.27;;;2.90;;
15944;SDS011;30172;48.832;8.732;2022-10-31T03:19:14;5.40;;;2.57;;
15944;SDS011;30172;48.832;8.732;2022-10-31T03:21:42;4.20;;;2.60;;
15944;SDS011;30172;48.832;8.732;2022-10-31T03:24:10;5.97;;;2.93;;
15944;SDS011;30172;48.832;8.732;2022-10-31T03:26:37;6.23;;;3.20;;
15944;SDS011;30172;48.832;8.732;2022-10-31T03:29:05;5.03;;;3.00;;
15944;SDS011;30172;48.832;8.732;2022-10-31T03:31:32;7.17;;;3.10;;
15944;SDS011;30172;48.832;8.732;2022-10-31T03:34:00;6.67;;;2.63;;
15944;SDS011;30172;48.832;8.732;2022-10-31T03:36:27;4.17;;;2.90;;
15944;SDS011;30172;48.832;8.732;2022-10-31T03:38:54;8.23;;;3.17;;
15944;SDS011;30172;48.832;8.732;2022-10-31T03:41:21;9.37;;;2.90;;
15944;SDS011;30172;48.832;8.732;2022-10-31T03:43:52;5.90;;;2.60;;
15944;SDS011;30172;48.832;8.732;2022-10-31T03:46:20;8.03;;;2.90;;
15944;SDS011;30172;48.832;8.732;2022-10-31T03:48:46;5.63;;;2.47;;
15944;SDS011;30172;48.832;8.732;2022-10-31T03:51:22;4.33;;;2.57;;
15944;SDS011;30172;48.832;8.732;2022-10-31T03:56:19;4.30;;;2.50;;
15944;SDS011;30172;48.832;8.732;2022-10-31T03:58:50;7.33;;;3.07;;
15944;SDS011;30172;48.832;8.732;2022-10-31T04:01:22;6.77;;;2.60;;
15944;SDS011;30172;48.832;8.732;2022-10-31T04:03:49;4.83;;;2.83;;
15944;SDS011;30172;48.832;8.732;2022-10-31T04:06:15;6.10;;;2.83;;
15944;SDS011;30172;48.832;8.732;2022-10-31T04:09:14;3.87;;;2.33;;
15944;SDS011;30172;48.832;8.732;2022-10-31T04:11:36;8.00;;;2.77;;
15944;SDS011;30172;48.832;8.732;2022-10-31T04:14:05;6.17;;;2.80;;
15944;SDS011;30172;48.832;8.732;2022-10-31T04:16:31;9.73;;;2.60;;
15944;SDS011;30172;48.832;8.732;2022-10-31T04:18:56;6.20;;;2.40;;
15944;SDS011;30172;48.832;8.732;2022-10-31T04:21:29;4.50;;;2.80;;
15944;SDS011;30172;48.832;8.732;2022-10-31T04:23:54;5.87;;;2.90;;
15944;SDS011;30172;48.832;8.732;2022-10-31T04:26:20;6.27;;;2.73;;
15944;SDS011;30172;48.832;8.732;2022-10-31T04:28:45;4.73;;;2.40;;
15944;SDS011;30172;48.832;8.732;2022-10-31T04:31:11;5.17;;;2.67;;
15944;SDS011;30172;48.832;8.732;2022-10-31T04:33:36;10.20;;;3.00;;
15944;SDS011;30172;48.832;8.732;2022-10-31T04:36:02;7.87;;;2.77;;
15944;SDS011;30172;48.832;8.732;2022-10-31T04:38:28;8.40;;;3.03;;
15944;SDS011;30172;48.832;8.732;2022-10-31T04:40:53;4.63;;;2.63;;
15944;SDS011;30172;48.832;8.732;2022-10-31T04:43:19;7.50;;;3.93;;
15944;SDS011;30172;48.832;8.732;2022-10-31T04:45:44;8.00;;;3.00;;
15944;SDS011;30172;48.832;8.732;2022-10-31T04:48:09;10.27;;;3.07;;
15944;SDS011;30172;48.832;8.732;2022-10-31T04:50:34;5.47;;;2.93;;
15944;SDS011;30172;48.832;8.732;2022-10-31T04:53:00;8.67;;;2.90;;
15944;SDS011;30172;48.832;8.732;2022-10-31T04:55:25;5.23;;;3.23;;
15944;SDS011;30172;48.832;8.732;2022-10-31T04:57:50;7.73;;;3.23;;
15944;SDS011;30172;48.832;8.732;2022-10-31T05:00:17;6.47;;;3.30;;
15944;SDS011;30172;48.832;8.732;2022-10-31T05:05:17;6.50;;;3.30;;
15944;SDS011;30172;48.832;8.732;2022-10-31T05:07:43;6.63;;;3.40;;
15944;SDS011;30172;48.832;8.732;2022-10-31T05:10:10;5.57;;;3.40;;
15944;SDS011;30172;48.832;8.732;2022-10-31T05:12:36;6.73;;;3.23;;
15944;SDS011;30172;48.832;8.732;2022-10-31T05:15:02;7.13;;;2.97;;
15944;SDS011;30172;48.832;8.732;2022-10-31T05:17:28;6.47;;;2.70;;
15944;SDS011;30172;48.832;8.732;2022-10-31T05:19:55;8.87;;;3.30;;
15944;SDS011;30172;48.832;8.732;2022-10-31T05:22:21;8.00;;;3.40;;
15944;SDS011;30172;48.832;8.732;2022-10-31T05:24:46;6.23;;;3.60;;
15944;SDS011;30172;48.832;8.732;2022-10-31T05:27:11;6.87;;;3.13;;
15944;SDS011;30172;48.832;8.732;2022-10-31T05:29:36;6.83;;;3.53;;
15944;SDS011;30172;48.832;8.732;2022-10-31T05:32:02;7.37;;;3.30;;
15944;SDS011;30172;48.832;8.732;2022-10-31T05:34:27;5.93;;;2.90;;
15944;SDS011;30172;48.832;8.732;2022-10-31T05:36:52;7.23;;;3.40;;
15944;SDS011;30172;48.832;8.732;2022-10-31T05:39:18;13.27;;;4.23;;
15944;SDS011;30172;48.832;8.732;2022-10-31T05:41:43;9.53;;;3.17;;
15944;SDS011;30172;48.832;8.732;2022-10-31T05:44:08;5.80;;;3.17;;
15944;SDS011;30172;48.832;8.732;2022-10-31T05:46:34;5.33;;;3.00;;
15944;SDS011;30172;48.832;8.732;2022-10-31T05:48:59;5.77;;;3.30;;
15944;SDS011;30172;48.832;8.732;2022-10-31T05:51:24;6.57;;;3.20;;
15944;SDS011;30172;48.832;8.732;2022-10-31T05:53:49;5.60;;;2.90;;
15944;SDS011;30172;48.832;8.732;2022-10-31T05:56:15;7.33;;;3.63;;
15944;SDS011;30172;48.832;8.732;2022-10-31T05:58:40;6.93;;;3.90;;
15944;SDS011;30172;48.832;8.732;2022-10-31T06:01:05;6.03;;;3.37;;
15944;SDS011;30172;48.832;8.732;2022-10-31T06:03:32;7.10;;;3.20;;
15944;SDS011;30172;48.832;8.732;2022-10-31T06:05:57;4.97;;;3.50;;
15944;SDS011;30172;48.832;8.732;2022-10-31T06:08:22;5.87;;;3.73;;
15944;SDS011;30172;48.832;8.732;2022-10-31T06:10:47;4.33;;;3.27;;
15944;SDS011;30172;48.832;8.732;2022-10-31T06:13:13;10.17;;;3.73;;
15944;SDS011;30172;48.832;8.732;2022-10-31T06:15:38;6.40;;;3.43;;
15944;SDS011;30172;48.832;8.732;2022-10-31T06:18:04;7.70;;;3.70;;
15944;SDS011;30172;48.832;8.732;2022-10-31T06:20:30;7.73;;;2.90;;
15944;SDS011;30172;48.832;8.732;2022-10-31T06:22:56;6.37;;;2.80;;
15944;SDS011;30172;48.832;8.732;2022-10-31T06:25:22;8.07;;;3.63;;
15944;SDS011;30172;48.832;8.732;2022-10-31T06:27:47;5.57;;;3.23;;
15944;SDS011;30172;48.832;8.732;2022-10-31T06:30:13;7.63;;;3.20;;
15944;SDS011;30172;48.832;8.732;2022-10-31T06:32:38;4.67;;;3.00;;
15944;SDS011;30172;48.832;8.732;2022-10-31T06:35:03;9.50;;;3.10;;
15944;SDS011;30172;48.832;8.732;2022-10-31T06:37:29;4.50;;;2.77;;
15944;SDS011;30172;48.832;8.732;2022-10-31T07:16:06;10.57;;;3.07;;
15944;SDS011;30172;48.832;8.732;2022-10-31T07:18:32;8.57;;;3.27;;
15944;SDS011;30172;48.832;8.732;2022-10-31T07:20:58;4.13;;;2.53;;
15944;SDS011;30172;48.832;8.732;2022-10-31T07:23:24;5.47;;;2.90;;
15944;SDS011;30172;48.832;8.732;2022-10-31T07:25:53;9.40;;;3.50;;
15944;SDS011;30172;48.832;8.732;2022-10-31T07:28:20;4.40;;;2.47;;
15944;SDS011;30172;48.832;8.732;2022-10-31T08:19:52;8.95;;;2.92;;
15944;SDS011;30172;48.832;8.732;2022-10-31T08:22:17;8.80;;;2.78;;
15944;SDS011;30172;48.832;8.732;2022-10-31T08:24:43;5.82;;;2.85;;
15944;SDS011;30172;48.832;8.732;2022-10-31T08:27:08;6.03;;;2.25;;
15944;SDS011;30172;48.832;8.732;2022-10-31T08:37:28;5.00;;;2.90;;
15944;SDS011;30172;48.832;8.732;2022-10-31T08:43:57;4.28;;;2.28;;
15944;SDS011;30172;48.832;8.732;2022-10-31T08:46:22;7.80;;;2.63;;
15944;SDS011;30172;48.832;8.732;2022-10-31T08:48:48;4.35;;;2.90;;
15944;SDS011;30172;48.832;8.732;2022-10-31T08:51:13;6.97;;;2.90;;
15944;SDS011;30172;48.832;8.732;2022-10-31T08:53:39;5.47;;;2.88;;
15944;SDS011;30172;48.832;8.732;2022-10-31T08:56:04;6.38;;;2.42;;
15944;SDS011;30172;48.832;8.732;2022-10-31T08:58:29;7.13;;;2.53;;
15944;SDS011;30172;48.832;8.732;2022-10-31T09:00:55;6.70;;;2.95;;
15944;SDS011;30172;48.832;8.732;2022-10-31T09:03:24;4.10;;;2.70;;
15944;SDS011;30172;48.832;8.732;2022-10-31T09:05:50;10.82;;;2.72;;
15944;SDS011;30172;48.832;8.732;2022-10-31T09:08:20;6.07;;;2.78;;
15944;SDS011;30172;48.832;8.732;2022-10-31T09:10:46;5.90;;;2.60;;
15944;SDS011;30172;48.832;8.732;2022-10-31T09:13:18;7.80;;;2.38;;
15944;SDS011;30172;48.832;8.732;2022-10-31T09:15:45;4.75;;;2.60;;
15944;SDS011;30172;48.832;8.732;2022-10-31T09:18:12;7.72;;;2.97;;
15944;SDS011;30172;48.832;8.732;2022-10-31T09:20:39;14.38;;;3.05;;
15944;SDS011;30172;48.832;8.732;2022-10-31T09:23:06;8.05;;;2.55;;
15944;SDS011;30172;48.832;8.732;2022-10-31T09:25:34;6.20;;;2.80;;
15944;SDS011;30172;48.832;8.732;2022-10-31T09:28:01;5.70;;;2.92;;
15944;SDS011;30172;48.832;8.732;2022-10-31T09:30:27;7.65;;;2.72;;
15944;SDS011;30172;48.832;8.732;2022-10-31T09:32:57;8.25;;;3.00;;
15944;SDS011;30172;48.832;8.732;2022-10-31T09:35:25;5.30;;;3.08;;
15944;SDS011;30172;48.832;8.732;2022-10-31T09:37:54;4.68;;;2.40;;
15944;SDS011;30172;48.832;8.732;2022-10-31T09:51:53;5.20;;;2.85;;
15944;SDS011;30172;48.832;8.732;2022-10-31T09:54:37;7.82;;;2.88;;
15944;SDS011;30172;48.832;8.732;2022-10-31T09:57:15;9.27;;;2.55;;
15944;SDS011;30172;48.832;8.732;2022-10-31T09:59:41;4.07;;;2.38;;
15944;SDS011;30172;48.832;8.732;2022-10-31T10:02:20;10.70;;;2.88;;
15944;SDS011;30172;48.832;8.732;2022-10-31T10:04:59;6.70;;;2.60;;
15944;SDS011;30172;48.832;8.732;2022-10-31T10:09:58;5.53;;;2.47;;
15944;SDS011;30172;48.832;8.732;2022-10-31T10:15:16;8.93;;;2.90;;
15944;SDS011;30172;48.832;8.732;2022-10-31T10:18:05;6.78;;;2.90;;
15944;SDS011;30172;48.832;8.732;2022-10-31T10:21:03;9.18;;;2.70;;
15944;SDS011;30172;48.832;8.732;2022-10-31T10:26:30;4.45;;;2.50;;
15944;SDS011;30172;48.832;8.732;2022-10-31T10:29:02;7.50;;;2.60;;
15944;SDS011;30172;48.832;8.732;2022-10-31T10:31:37;4.45;;;2.78;;
15944;SDS011;30172;48.832;8.732;2022-10-31T10:36:40;7.22;;;2.85;;
15944;SDS011;30172;48.832;8.732;2022-10-31T10:39:15;5.65;;;2.88;;
15944;SDS011;30172;48.832;8.732;2022-10-31T10:41:45;5.20;;;2.92;;
15944;SDS011;30172;48.832;8.732;2022-10-31T10:44:33;8.50;;;3.58;;
15944;SDS011;30172;48.832;8.732;2022-10-31T10:47:17;8.20;;;2.92;;
15944;SDS011;30172;48.832;8.732;2022-10-31T10:50:03;7.32;;;3.17;;
15944;SDS011;30172;48.832;8.732;2022-10-31T10:52:52;5.43;;;3.00;;
15944;SDS011;30172;48.832;8.732;2022-10-31T10:58:08;8.07;;;3.60;;
15944;SDS011;30172;48.832;8.732;2022-10-31T11:00:38;6.78;;;3.25;;
15944;SDS011;30172;48.832;8.732;2022-10-31T11:03:05;10.13;;;3.05;;
15944;SDS011;30172;48.832;8.732;2022-10-31T11:08:29;7.03;;;3.70;;
15944;SDS011;30172;48.832;8.732;2022-10-31T11:13:52;7.82;;;3.55;;
15944;SDS011;30172;48.832;8.732;2022-10-31T11:18:51;8.07;;;3.80;;
15944;SDS011;30172;48.832;8.732;2022-10-31T11:21:34;7.45;;;3.40;;
15944;SDS011;30172;48.832;8.732;2022-10-31T11:26:34;7.45;;;3.20;;
15944;SDS011;30172;48.832;8.732;2022-10-31T11:29:02;6.10;;;2.95;;
15944;SDS011;30172;48.832;8.732;2022-10-31T11:54:49;6.13;;;3.05;;
15944;SDS011;30172;48.832;8.732;2022-10-31T12:00:52;7.25;;;3.28;;
15944;SDS011;30172;48.832;8.732;2022-10-31T12:06:02;8.30;;;3.50;;
15944;SDS011;30172;48.832;8.732;2022-10-31T12:08:32;8.85;;;3.25;;
15944;SDS011;30172;48.832;8.732;2022-10-31T12:13:34;8.77;;;3.10;;
15944;SDS011;30172;48.832;8.732;2022-10-31T12:21:24;7.57;;;3.33;;
15944;SDS011;30172;48.832;8.732;2022-10-31T12:29:40;9.68;;;3.97;;
15944;SDS011;30172;48.832;8.732;2022-10-31T12:54:08;10.90;;;4.10;;
15944;SDS011;30172;48.832;8.732;2022-10-31T13:04:45;7.40;;;4.50;;
15944;SDS011;30172;48.832;8.732;2022-10-31T13:07:15;6.43;;;3.92;;
15944;SDS011;30172;48.832;8.732;2022-10-31T13:10:03;9.02;;;4.00;;
15944;SDS011;30172;48.832;8.732;2022-10-31T13:12:37;9.90;;;4.15;;
15944;SDS011;30172;48.832;8.732;2022-10-31T13:15:04;8.75;;;3.60;;
15944;SDS011;30172;48.832;8.732;2022-10-31T13:17:39;7.00;;;3.97;;
15944;SDS011;30172;48.832;8.732;2022-10-31T13:20:20;8.52;;;3.70;;
15944;SDS011;30172;48.832;8.732;2022-10-31T13:22:48;8.20;;;3.75;;
15944;SDS011;30172;48.832;8.732;2022-10-31T13:25:16;8.52;;;3.58;;
15944;SDS011;30172;48.832;8.732;2022-10-31T13:28:00;11.02;;;3.70;;
15944;SDS011;30172;48.832;8.732;2022-10-31T13:30:36;6.18;;;3.47;;
15944;SDS011;30172;48.832;8.732;2022-10-31T13:33:04;7.93;;;3.97;;
15944;SDS011;30172;48.832;8.732;2022-10-31T13:35:40;7.78;;;3.45;;
15944;SDS011;30172;48.832;8.732;2022-10-31T13:38:12;7.80;;;3.15;;
15944;SDS011;30172;48.832;8.732;2022-10-31T13:43:32;8.88;;;3.60;;
15944;SDS011;30172;48.832;8.732;2022-10-31T13:46:24;7.53;;;3.58;;
15944;SDS011;30172;48.832;8.732;2022-10-31T13:49:03;5.43;;;3.42;;
15944;SDS011;30172;48.832;8.732;2022-10-31T13:51:30;6.40;;;3.22;;
15944;SDS011;30172;48.832;8.732;2022-10-31T13:53:58;6.35;;;3.58;;
15944;SDS011;30172;48.832;8.732;2022-10-31T13:57:01;8.45;;;4.03;;
15944;SDS011;30172;48.832;8.732;2022-10-31T13:59:35;8.75;;;3.33;;
15944;SDS011;30172;48.832;8.732;2022-10-31T14:02:29;8.55;;;3.67;;
15944;SDS011;30172;48.832;8.732;2022-10-31T14:11:26;9.40;;;4.10;;
15944;SDS011;30172;48.832;8.732;2022-10-31T14:13:56;6.03;;;3.60;;
15944;SDS011;30172;48.832;8.732;2022-10-31T14:16:36;6.95;;;3.90;;
15944;SDS011;30172;48.832;8.732;2022-10-31T14:19:27;10.35;;;4.25;;
15944;SDS011;30172;48.832;8.732;2022-10-31T14:22:23;6.57;;;4.22;;
15944;SDS011;30172;48.832;8.732;2022-10-31T14:25:32;5.95;;;4.20;;
15944;SDS011;30172;48.832;8.732;2022-10-31T14:28:31;10.00;;;3.60;;
15944;SDS011;30172;48.832;8.732;2022-10-31T14:31:21;4.10;;;3.42;;
15944;SDS011;30172;48.832;8.732;2022-10-31T14:33:54;7.07;;;3.65;;
15944;SDS011;30172;48.832;8.732;2022-10-31T14:36:31;8.43;;;3.75;;
15944;SDS011;30172;48.832;8.732;2022-10-31T14:39:21;11.07;;;4.32;;
15944;SDS011;30172;48.832;8.732;2022-10-31T14:41:57;9.57;;;3.75;;
15944;SDS011;30172;48.832;8.732;2022-10-31T14:47:20;9.55;;;4.07;;
15944;SDS011;30172;48.832;8.732;2022-10-31T14:50:12;8.27;;;4.45;;
15944;SDS011;30172;48.832;8.732;2022-10-31T14:52:47;10.15;;;3.95;;
15944;SDS011;30172;48.832;8.732;2022-10-31T14:55:14;6.40;;;4.03;;
15944;SDS011;30172;48.832;8.732;2022-10-31T14:57:43;6.65;;;4.18;;
15944;SDS011;30172;48.832;8.732;2022-10-31T16:08:24;16.92;;;8.95;;
15944;SDS011;30172;48.832;8.732;2022-10-31T16:10:49;13.43;;;9.05;;
15944;SDS011;30172;48.832;8.732;2022-10-31T16:13:14;14.80;;;8.98;;
15944;SDS011;30172;48.832;8.732;2022-10-31T16:15:47;15.48;;;7.97;;
15944;SDS011;30172;48.832;8.732;2022-10-31T16:18:13;19.27;;;7.70;;
15944;SDS011;30172;48.832;8.732;2022-10-31T16:20:38;12.63;;;6.32;;
15944;SDS011;30172;48.832;8.732;2022-10-31T16:23:04;11.20;;;7.10;;
15944;SDS011;30172;48.832;8.732;2022-10-31T16:25:32;12.88;;;7.03;;
15944;SDS011;30172;48.832;8.732;2022-10-31T16:28:01;12.60;;;7.15;;
15944;SDS011;30172;48.832;8.732;2022-10-31T16:30:39;14.80;;;6.43;;
15944;SDS011;30172;48.832;8.732;2022-10-31T16:33:23;18.35;;;7.05;;
15944;SDS011;30172;48.832;8.732;2022-10-31T16:35:52;12.65;;;6.72;;
15944;SDS011;30172;48.832;8.732;2022-10-31T16:38:17;13.90;;;7.38;;
15944;SDS011;30172;48.832;8.732;2022-10-31T16:40:43;10.45;;;7.10;;
15944;SDS011;30172;48.832;8.732;2022-10-31T16:43:10;18.55;;;9.65;;
15944;SDS011;30172;48.832;8.732;2022-10-31T16:45:37;13.18;;;9.00;;
15944;SDS011;30172;48.832;8.732;2022-10-31T16:48:12;15.70;;;7.68;;
15944;SDS011;30172;48.832;8.732;2022-10-31T16:50:39;13.90;;;7.35;;
15944;SDS011;30172;48.832;8.732;2022-10-31T16:53:05;15.10;;;8.57;;
15944;SDS011;30172;48.832;8.732;2022-10-31T16:55:31;13.77;;;7.22;;
15944;SDS011;30172;48.832;8.732;2022-10-31T16:57:59;12.40;;;6.05;;
15944;SDS011;30172;48.832;8.732;2022-10-31T17:00:25;8.98;;;6.43;;
15944;SDS011;30172;48.832;8.732;2022-10-31T17:02:52;11.02;;;6.22;;
15944;SDS011;30172;48.832;8.732;2022-10-31T17:05:19;9.93;;;6.07;;
15944;SDS011;30172;48.832;8.732;2022-10-31T17:07:45;9.50;;;5.95;;
15944;SDS011;30172;48.832;8.732;2022-10-31T17:10:11;10.27;;;6.25;;
15944;SDS011;30172;48.832;8.732;2022-10-31T17:12:38;13.23;;;7.85;;
15944;SDS011;30172;48.832;8.732;2022-10-31T17:15:09;16.38;;;10.43;;
15944;SDS011;30172;48.832;8.732;2022-10-31T17:17:40;19.58;;;11.93;;
15944;SDS011;30172;48.832;8.732;2022-10-31T17:20:16;16.58;;;12.02;;
15944;SDS011;30172;48.832;8.732;2022-10-31T17:22:43;12.23;;;8.80;;
15944;SDS011;30172;48.832;8.732;2022-10-31T17:25:11;13.32;;;7.35;;
15944;SDS011;30172;48.832;8.732;2022-10-31T17:27:39;10.77;;;6.50;;
15944;SDS011;30172;48.832;8.732;2022-10-31T17:30:05;13.52;;;6.55;;
15944;SDS011;30172;48.832;8.732;2022-10-31T17:32:30;10.25;;;6.47;;
15944;SDS011;30172;48.832;8.732;2022-10-31T17:34:55;11.98;;;7.30;;
15944;SDS011;30172;48.832;8.732;2022-10-31T17:37:21;10.23;;;7.07;;
15944;SDS011;30172;48.832;8.732;2022-10-31T17:39:46;13.25;;;6.70;;
15944;SDS011;30172;48.832;8.732;2022-10-31T17:42:11;14.15;;;6.05;;
15944;SDS011;30172;48.832;8.732;2022-10-31T17:44:36;11.00;;;6.18;;
15944;SDS011;30172;48.832;8.732;2022-10-31T17:47:02;10.35;;;6.10;;
15944;SDS011;30172;48.832;8.732;2022-10-31T17:49:27;10.65;;;5.80;;
15944;SDS011;30172;48.832;8.732;2022-10-31T17:51:53;11.63;;;5.65;;
15944;SDS011;30172;48.832;8.732;2022-10-31T17:54:18;13.88;;;6.40;;
15944;SDS011;30172;48.832;8.732;2022-10-31T17:56:46;10.55;;;5.40;;
15944;SDS011;30172;48.832;8.732;2022-10-31T17:59:12;13.38;;;5.88;;
15944;SDS011;30172;48.832;8.732;2022-10-31T20:24:48;6.53;;;4.60;;
15944;SDS011;30172;48.832;8.732;2022-10-31T20:27:39;7.35;;;4.15;;
15944;SDS011;30172;48.832;8.732;2022-10-31T20:30:09;9.70;;;3.90;;
15944;SDS011;30172;48.832;8.732;2022-10-31T20:33:15;8.70;;;4.78;;
15944;SDS011;30172;48.832;8.732;2022-10-31T20:36:06;10.40;;;6.40;;
15944;SDS011;30172;48.832;8.732;2022-10-31T20:38:45;9.60;;;6.10;;
15944;SDS011;30172;48.832;8.732;2022-10-31T20:41:30;13.97;;;5.70;;
15944;SDS011;30172;48.832;8.732;2022-10-31T20:44:07;10.77;;;4.83;;
15944;SDS011;30172;48.832;8.732;2022-10-31T20:47:18;9.83;;;5.27;;
15944;SDS011;30172;48.832;8.732;2022-10-31T20:50:11;10.33;;;6.30;;
15944;SDS011;30172;48.832;8.732;2022-10-31T20:52:54;16.87;;;11.90;;
15944;SDS011;30172;48.832;8.732;2022-10-31T20:55:28;12.63;;;8.77;;
15944;SDS011;30172;48.832;8.732;2022-10-31T20:58:10;11.97;;;7.57;;
15944;SDS011;30172;48.832;8.732;2022-10-31T21:01:27;12.90;;;7.33;;
15944;SDS011;30172;48.832;8.732;2022-10-31T21:03:57;11.30;;;6.70;;
15944;SDS011;30172;48.832;8.732;2022-10-31T21:06:38;12.60;;;5.90;;
15944;SDS011;30172;48.832;8.732;2022-10-31T21:09:24;8.40;;;5.37;;
15944;SDS011;30172;48.832;8.732;2022-10-31T21:12:31;10.07;;;6.07;;
15944;SDS011;30172;48.832;8.732;2022-10-31T21:15:36;11.07;;;7.07;;
15944;SDS011;30172;48.832;8.732;2022-10-31T21:18:19;8.10;;;5.20;;
15944;SDS011;30172;48.832;8.732;2022-10-31T21:24:27;12.83;;;5.03;;
15944;SDS011;30172;48.832;8.732;2022-10-31T21:27:29;7.20;;;4.90;;
15944;SDS011;30172;48.832;8.732;2022-10-31T21:30:47;8.07;;;3.90;;
15944;SDS011;30172;48.832;8.732;2022-10-31T21:33:43;8.67;;;5.10;;
15944;SDS011;30172;48.832;8.732;2022-10-31T21:36:31;6.77;;;3.40;;
15944;SDS011;30172;48.832;8.732;2022-10-31T21:38:58;7.90;;;3.53;;
15944;SDS011;30172;48.832;8.732;2022-10-31T21:41:27;10.50;;;4.77;;
15944;SDS011;30172;48.832;8.732;2022-10-31T21:43:52;12.33;;;5.13;;
15944;SDS011;30172;48.832;8.732;2022-10-31T21:46:19;7.77;;;4.33;;
15944;SDS011;30172;48.832;8.732;2022-10-31T21:48:52;5.37;;;3.40;;
15944;SDS011;30172;48.832;8.732;2022-10-31T21:51:19;7.60;;;4.27;;
15944;SDS011;30172;48.832;8.732;2022-10-31T21:53:46;5.63;;;4.13;;
15944;SDS011;30172;48.832;8.732;2022-10-31T21:56:30;6.63;;;3.93;;
15944;SDS011;30172;48.832;8.732;2022-10-31T21:58:55;7.00;;;3.90;;
15944;SDS011;30172;48.832;8.732;2022-10-31T22:01:21;7.77;;;4.50;;
15944;SDS011;30172;48.832;8.732;2022-10-31T22:03:47;5.67;;;4.10;;
15944;SDS011;30172;48.832;8.732;2022-10-31T22:06:13;7.47;;;4.70;;
15944;SDS011;30172;48.832;8.732;2022-10-31T22:08:39;9.37;;;5.47;;
15944;SDS011;30172;48.832;8.732;2022-10-31T22:11:08;11.10;;;5.77;;
15944;SDS011;30172;48.832;8.732;2022-10-31T22:13:35;9.57;;;5.27;;
15944;SDS011;30172;48.832;8.732;2022-10-31T22:16:01;9.53;;;5.00;;
15944;SDS011;30172;48.832;8.732;2022-10-31T22:18:27;12.07;;;4.90;;
15944;SDS011;30172;48.832;8.732;2022-10-31T22:20:53;11.47;;;4.93;;
15944;SDS011;30172;48.832;8.732;2022-10-31T22:23:18;8.37;;;4.67;;
15944;SDS011;30172;48.832;8.732;2022-10-31T22:25:43;5.93;;;3.97;;
15944;SDS011;30172;48.832;8.732;2022-10-31T22:28:08;7.23;;;3.97;;
15944;SDS011;30172;48.832;8.732;2022-10-31T22:30:36;7.03;;;3.70;;
15944;SDS011;30172;48.832;8.732;2022-10-31T22:33:01;7.40;;;4.03;;
15944;SDS011;30172;48.832;8.732;2022-10-31T22:35:27;8.03;;;4.50;;
15944;SDS011;30172;48.832;8.732;2022-10-31T22:37:52;8.83;;;4.00;;
15944;SDS011;30172;48.832;8.732;2022-10-31T22:40:17;5.30;;;3.50;;
15944;SDS011;30172;48.832;8.732;2022-10-31T22:42:43;6.67;;;3.80;;
15944;SDS011;30172;48.832;8.732;2022-10-31T22:45:08;8.10;;;3.70;;
15944;SDS011;30172;48.832;8.732;2022-10-31T22:47:34;5.77;;;3.47;;